Time;durP1;ratioP1;P1;durP2;ratioP2;P2;SDS_P1;SDS_P2;PMS_P1;PMS_P2;Temp;Humidity;BMP_temperature;BMP_pressure;BME280_temperature;BME280_humidity;BME280_pressure;Samples;Min_cycle;Max_cycle;Signal;HPM_P1;HPM_P2
2020/12/15 06:02:27;;;;;;;20.33;3.20;;;;;;;;;;5083464;27;20435;-60
2020/12/15 06:04:53;;;;;;;29.10;3.28;;;;;;;;;;5084355;28;20377;-60
2020/12/15 06:07:20;;;;;;;32.85;4.10;;;;;;;;;;5073589;28;20572;-62
2020/12/15 06:09:48;;;;;;;28.02;3.17;;;;;;;;;;5073466;28;20051;-59
2020/12/15 06:12:14;;;;;;;34.33;3.95;;;;;;;;;;5073197;28;20032;-59
2020/12/15 06:14:40;;;;;;;25.95;3.10;;;;;;;;;;5069947;28;20024;-62
2020/12/15 06:17:07;;;;;;;26.95;3.20;;;;;;;;;;5070219;28;20021;-60
2020/12/15 06:19:34;;;;;;;28.45;3.00;;;;;;;;;;5072948;28;20489;-61
2020/12/15 06:22:01;;;;;;;17.73;2.97;;;;;;;;;;5072297;28;20028;-60
2020/12/15 06:24:29;;;;;;;28.75;2.95;;;;;;;;;;5072791;28;20086;-61
2020/12/15 06:26:56;;;;;;;27.65;3.55;;;;;;;;;;5085442;28;20033;-61
2020/12/15 06:29:33;;;;;;;23.48;2.78;;;;;;;;;;5084288;28;20029;-61
2020/12/15 06:32:00;;;;;;;26.23;2.67;;;;;;;;;;5086876;28;20059;-60
2020/12/15 06:34:27;;;;;;;30.05;3.78;;;;;;;;;;5084457;28;20051;-61
2020/12/15 06:36:55;;;;;;;19.20;2.88;;;;;;;;;;5076462;28;20035;-60
2020/12/15 06:39:22;;;;;;;34.28;4.18;;;;;;;;;;5072184;28;20039;-61
2020/12/15 06:42:01;;;;;;;19.88;2.65;;;;;;;;;;5070464;28;20024;-60
2020/12/15 06:44:32;;;;;;;19.52;3.25;;;;;;;;;;5068188;28;20031;-61
2020/12/15 06:47:02;;;;;;;22.58;3.72;;;;;;;;;;5083454;28;20028;-60
2020/12/15 06:49:36;;;;;;;19.60;2.60;;;;;;;;;;5072572;28;20043;-62
2020/12/15 06:52:06;;;;;;;27.27;2.92;;;;;;;;;;5071889;28;20566;-61
2020/12/15 06:54:34;;;;;;;17.38;2.17;;;;;;;;;;5071909;28;20017;-61
2020/12/15 06:57:03;;;;;;;28.05;2.78;;;;;;;;;;5071569;28;20028;-61
2020/12/15 06:59:30;;;;;;;25.92;3.50;;;;;;;;;;5064028;28;20040;-61
2020/12/15 07:02:10;;;;;;;26.80;3.15;;;;;;;;;;5064035;28;20095;-61
2020/12/15 07:04:41;;;;;;;24.90;2.65;;;;;;;;;;5066884;28;20047;-61
2020/12/15 07:07:07;;;;;;;15.65;2.50;;;;;;;;;;5067458;28;20165;-61
2020/12/15 07:09:34;;;;;;;17.75;2.92;;;;;;;;;;5067725;28;20092;-61
2020/12/15 07:12:03;;;;;;;42.33;4.53;;;;;;;;;;5067374;28;20052;-61
2020/12/15 07:14:29;;;;;;;27.98;2.97;;;;;;;;;;5054225;28;20028;-62
2020/12/15 07:16:55;;;;;;;24.00;2.25;;;;;;;;;;5069493;28;20493;-61
2020/12/15 07:19:24;;;;;;;20.25;2.53;;;;;;;;;;5069841;28;20028;-61
2020/12/15 07:21:50;;;;;;;16.55;2.03;;;;;;;;;;5060264;28;20017;-61
2020/12/15 07:24:17;;;;;;;24.20;2.75;;;;;;;;;;5057742;28;20025;-61
2020/12/15 07:26:43;;;;;;;19.48;2.45;;;;;;;;;;5059363;28;20033;-61
2020/12/15 07:29:09;;;;;;;18.02;2.42;;;;;;;;;;5061338;28;20037;-61
2020/12/15 07:31:35;;;;;;;20.20;3.08;;;;;;;;;;5066318;28;20033;-61
2020/12/15 07:34:05;;;;;;;19.02;2.58;;;;;;;;;;5069047;28;20094;-61
2020/12/15 07:36:32;;;;;;;16.45;2.17;;;;;;;;;;5072044;28;20078;-62
2020/12/15 07:38:59;;;;;;;15.60;2.78;;;;;;;;;;5058423;28;20032;-61
2020/12/15 07:41:25;;;;;;;17.30;2.15;;;;;;;;;;5062110;28;20041;-61
2020/12/15 07:43:52;;;;;;;12.90;2.17;;;;;;;;;;5066108;28;20042;-61
2020/12/15 07:46:20;;;;;;;20.42;2.38;;;;;;;;;;5054871;28;20135;-62
2020/12/15 07:48:46;;;;;;;16.73;2.65;;;;;;;;;;5068774;28;20131;-61
2020/12/15 07:51:13;;;;;;;21.65;3.30;;;;;;;;;;5067950;28;20030;-61
2020/12/15 07:53:39;;;;;;;14.63;2.63;;;;;;;;;;5059495;28;20032;-61
2020/12/15 07:56:06;;;;;;;18.63;2.20;;;;;;;;;;5059257;28;20028;-61
2020/12/15 07:58:32;;;;;;;14.70;1.98;;;;;;;;;;5068649;28;20423;-61
2020/12/15 08:00:58;;;;;;;15.13;2.28;;;;;;;;;;5053776;28;20061;-61
2020/12/15 08:03:25;;;;;;;19.00;2.25;;;;;;;;;;5070689;28;20043;-61
2020/12/15 08:05:51;;;;;;;20.20;2.35;;;;;;;;;;5066410;28;20036;-61
2020/12/15 08:08:18;;;;;;;19.25;2.15;;;;;;;;;;5062018;28;20379;-61
2020/12/15 08:10:44;;;;;;;12.45;2.00;;;;;;;;;;5067222;28;20043;-61
2020/12/15 08:13:10;;;;;;;10.43;1.65;;;;;;;;;;5066115;28;20078;-61
2020/12/15 08:15:37;;;;;;;10.13;1.67;;;;;;;;;;5070023;28;20056;-61
2020/12/15 08:18:04;;;;;;;10.88;1.70;;;;;;;;;;5069952;28;20451;-60
2020/12/15 08:20:31;;;;;;;18.73;2.53;;;;;;;;;;5067253;28;20123;-61
2020/12/15 08:23:10;;;;;;;18.20;2.08;;;;;;;;;;5066256;28;20087;-61
2020/12/15 08:25:37;;;;;;;18.52;3.08;;;;;;;;;;5068937;28;20028;-61
2020/12/15 08:28:10;;;;;;;16.95;1.90;;;;;;;;;;5067866;28;20502;-60
2020/12/15 08:30:36;;;;;;;9.65;2.15;;;;;;;;;;5069987;28;20603;-61
2020/12/15 08:33:02;;;;;;;15.02;2.15;;;;;;;;;;5070433;28;20100;-61
2020/12/15 08:35:28;;;;;;;11.77;1.88;;;;;;;;;;5068605;28;20047;-61
2020/12/15 08:37:56;;;;;;;9.27;1.80;;;;;;;;;;5068176;28;20108;-61
2020/12/15 08:40:22;;;;;;;13.70;2.17;;;;;;;;;;5069391;28;20119;-62
2020/12/15 08:42:48;;;;;;;12.07;2.30;;;;;;;;;;5067464;28;20040;-61
2020/12/15 08:45:16;;;;;;;11.93;2.53;;;;;;;;;;5068527;28;20082;-61
2020/12/15 08:47:46;;;;;;;20.95;1.90;;;;;;;;;;5067985;28;20059;-61
2020/12/15 08:50:12;;;;;;;10.65;1.58;;;;;;;;;;5068087;28;20020;-61
2020/12/15 08:52:39;;;;;;;10.85;2.30;;;;;;;;;;5067467;28;20070;-61
2020/12/15 08:55:05;;;;;;;17.20;2.25;;;;;;;;;;5067405;28;20072;-60
2020/12/15 08:57:31;;;;;;;24.52;3.05;;;;;;;;;;5054555;28;20090;-61
2020/12/15 09:00:07;;;;;;;15.10;2.03;;;;;;;;;;5055980;28;20025;-61
2020/12/15 09:02:33;;;;;;;10.50;1.77;;;;;;;;;;5061288;28;20435;-61
2020/12/15 09:05:06;;;;;;;14.93;2.40;;;;;;;;;;5063321;28;20029;-61
2020/12/15 09:07:33;;;;;;;16.25;2.40;;;;;;;;;;5061166;28;20456;-61
2020/12/15 09:10:08;;;;;;;11.32;2.25;;;;;;;;;;5052869;28;20439;-62
2020/12/15 09:12:35;;;;;;;7.05;1.55;;;;;;;;;;5067655;28;20432;-62
2020/12/15 09:15:01;;;;;;;10.65;1.45;;;;;;;;;;5065174;28;20489;-61
2020/12/15 09:17:27;;;;;;;9.65;1.23;;;;;;;;;;5064212;28;20059;-61
2020/12/15 09:19:53;;;;;;;11.05;1.52;;;;;;;;;;5064257;28;20574;-61
2020/12/15 09:22:20;;;;;;;8.98;1.50;;;;;;;;;;5067012;28;20033;-61
2020/12/15 09:24:46;;;;;;;7.63;1.33;;;;;;;;;;5052379;28;20505;-61
2020/12/15 09:27:22;;;;;;;9.50;1.73;;;;;;;;;;5066565;28;20043;-61
2020/12/15 09:29:48;;;;;;;12.00;2.65;;;;;;;;;;5065780;28;20025;-60
2020/12/15 09:32:17;;;;;;;11.95;1.30;;;;;;;;;;5064567;28;20028;-61
2020/12/15 09:34:44;;;;;;;9.95;1.65;;;;;;;;;;5066940;28;20386;-61
2020/12/15 09:37:10;;;;;;;11.30;1.90;;;;;;;;;;5068175;28;20393;-61
2020/12/15 09:39:36;;;;;;;12.60;2.78;;;;;;;;;;5067262;28;20102;-61
2020/12/15 09:42:04;;;;;;;11.00;2.13;;;;;;;;;;5067130;28;20040;-61
2020/12/15 09:44:30;;;;;;;13.88;1.95;;;;;;;;;;5065627;28;20024;-61
2020/12/15 09:46:56;;;;;;;8.10;1.55;;;;;;;;;;5066917;28;20032;-61
2020/12/15 09:49:22;;;;;;;8.68;1.58;;;;;;;;;;5068066;28;20021;-61
2020/12/15 09:51:49;;;;;;;13.40;2.30;;;;;;;;;;5067803;28;20118;-61
2020/12/15 09:54:15;;;;;;;9.38;1.60;;;;;;;;;;5070226;28;20453;-61
2020/12/15 09:56:45;;;;;;;11.77;2.42;;;;;;;;;;5065844;28;20032;-61
2020/12/15 09:59:14;;;;;;;21.23;3.20;;;;;;;;;;5065229;28;20059;-60
2020/12/15 10:01:44;;;;;;;11.38;2.10;;;;;;;;;;5066722;28;20047;-61
2020/12/15 10:04:10;;;;;;;11.27;1.80;;;;;;;;;;5067183;28;20044;-61
2020/12/15 10:06:38;;;;;;;13.55;1.88;;;;;;;;;;5066650;28;20066;-60
2020/12/15 10:09:04;;;;;;;15.13;1.90;;;;;;;;;;5067404;28;20029;-60
2020/12/15 10:11:31;;;;;;;11.73;2.63;;;;;;;;;;5065831;28;20036;-61
2020/12/15 10:13:57;;;;;;;9.50;2.03;;;;;;;;;;5065640;28;20060;-61
2020/12/15 10:16:23;;;;;;;23.23;2.17;;;;;;;;;;5068045;28;20024;-61
2020/12/15 10:18:49;;;;;;;10.95;1.65;;;;;;;;;;5065777;28;20025;-60
2020/12/15 10:21:18;;;;;;;15.52;1.50;;;;;;;;;;5067536;28;20040;-61
2020/12/15 10:23:47;;;;;;;19.95;1.70;;;;;;;;;;5065751;28;20032;-61
2020/12/15 10:26:13;;;;;;;11.85;1.83;;;;;;;;;;5062769;28;20101;-61
2020/12/15 10:28:41;;;;;;;12.10;2.40;;;;;;;;;;5065982;28;20396;-61
2020/12/15 10:31:09;;;;;;;12.55;2.13;;;;;;;;;;5067279;28;20024;-72
2020/12/15 10:33:35;;;;;;;7.65;1.52;;;;;;;;;;5066324;28;20036;-71
2020/12/15 10:36:02;;;;;;;10.88;1.65;;;;;;;;;;5067101;28;20039;-68
2020/12/15 10:38:28;;;;;;;12.85;1.50;;;;;;;;;;5069049;28;20027;-66
2020/12/15 10:40:54;;;;;;;10.82;1.98;;;;;;;;;;5069594;28;20040;-72
2020/12/15 10:43:20;;;;;;;5.03;1.00;;;;;;;;;;5071224;28;20032;-70
2020/12/15 10:45:46;;;;;;;12.65;3.25;;;;;;;;;;5071718;28;20548;-66
2020/12/15 10:48:12;;;;;;;9.32;1.70;;;;;;;;;;5073398;28;20055;-65
2020/12/15 10:50:40;;;;;;;11.88;1.50;;;;;;;;;;5071410;28;20047;-65
2020/12/15 10:53:09;;;;;;;12.05;1.48;;;;;;;;;;5068149;28;20020;-71
2020/12/15 10:55:35;;;;;;;9.80;1.45;;;;;;;;;;5071198;28;20029;-64
2020/12/15 10:58:01;;;;;;;10.85;1.63;;;;;;;;;;5071210;28;20105;-59
2020/12/15 11:00:27;;;;;;;11.30;1.35;;;;;;;;;;5072589;28;20048;-60
2020/12/15 11:02:53;;;;;;;10.68;1.30;;;;;;;;;;5071202;28;20127;-59
2020/12/15 11:05:20;;;;;;;16.23;1.25;;;;;;;;;;5071224;28;20107;-59
2020/12/15 11:07:46;;;;;;;10.40;1.17;;;;;;;;;;5071085;28;20660;-60
2020/12/15 11:10:12;;;;;;;11.55;1.23;;;;;;;;;;5071483;28;20036;-60
2020/12/15 11:12:38;;;;;;;16.05;2.08;;;;;;;;;;5071101;28;20128;-60
2020/12/15 11:15:04;;;;;;;12.32;1.52;;;;;;;;;;5068362;28;20398;-60
2020/12/15 11:17:31;;;;;;;13.25;1.60;;;;;;;;;;5066632;28;20044;-60
2020/12/15 11:19:57;;;;;;;8.00;1.20;;;;;;;;;;5066153;28;20056;-60
2020/12/15 11:22:23;;;;;;;8.32;1.63;;;;;;;;;;5055213;28;20383;-60
2020/12/15 11:24:49;;;;;;;8.35;1.35;;;;;;;;;;5068806;28;20462;-59
2020/12/15 11:27:16;;;;;;;8.98;1.40;;;;;;;;;;5057376;28;20068;-61
2020/12/15 11:29:42;;;;;;;10.68;1.20;;;;;;;;;;5064722;28;20385;-61
2020/12/15 11:32:08;;;;;;;6.53;1.80;;;;;;;;;;5064069;28;20033;-61
2020/12/15 11:34:34;;;;;;;8.27;1.30;;;;;;;;;;5055030;28;20033;-60
2020/12/15 11:37:00;;;;;;;11.57;2.10;;;;;;;;;;5069221;28;20023;-60
2020/12/15 11:39:27;;;;;;;12.23;1.60;;;;;;;;;;5068791;28;20095;-61
2020/12/15 11:41:53;;;;;;;8.15;1.67;;;;;;;;;;5057802;28;20090;-60
2020/12/15 11:44:19;;;;;;;14.68;1.50;;;;;;;;;;5057828;28;20032;-61
2020/12/15 11:46:46;;;;;;;18.98;2.80;;;;;;;;;;5056530;28;20063;-61
2020/12/15 11:49:12;;;;;;;11.90;1.30;;;;;;;;;;5068998;28;20021;-60
2020/12/15 11:51:38;;;;;;;14.80;1.45;;;;;;;;;;5068341;28;20036;-60
2020/12/15 11:54:04;;;;;;;17.02;1.73;;;;;;;;;;5067730;28;20408;-60
2020/12/15 11:56:31;;;;;;;11.02;1.42;;;;;;;;;;5065299;28;20052;-61
2020/12/15 11:58:57;;;;;;;10.18;1.55;;;;;;;;;;5065529;28;20028;-60
2020/12/15 12:01:23;;;;;;;11.00;1.35;;;;;;;;;;5053837;28;20056;-61
2020/12/15 12:03:49;;;;;;;12.25;1.27;;;;;;;;;;5069158;28;20020;-59
2020/12/15 12:06:16;;;;;;;14.38;1.65;;;;;;;;;;5057071;28;20041;-59
2020/12/15 12:08:42;;;;;;;12.48;1.60;;;;;;;;;;5063836;28;20034;-60
2020/12/15 12:11:10;;;;;;;10.05;1.63;;;;;;;;;;5063247;28;20025;-60
2020/12/15 12:13:36;;;;;;;9.52;1.20;;;;;;;;;;5054933;28;20029;-61
2020/12/15 12:16:04;;;;;;;9.63;2.10;;;;;;;;;;5068511;28;20032;-60
2020/12/15 12:18:30;;;;;;;10.27;1.25;;;;;;;;;;5056377;28;20395;-60
2020/12/15 12:20:56;;;;;;;5.13;1.20;;;;;;;;;;5085872;28;20063;-58
2020/12/15 12:23:22;;;;;;;5.68;1.45;;;;;;;;;;5056411;28;20025;-60
2020/12/15 12:25:48;;;;;;;12.48;2.20;;;;;;;;;;5055951;28;20108;-60
2020/12/15 12:28:14;;;;;;;13.43;2.03;;;;;;;;;;5067758;28;20024;-60
2020/12/15 12:30:40;;;;;;;9.77;1.40;;;;;;;;;;5067890;28;20445;-59
2020/12/15 12:33:07;;;;;;;6.00;1.23;;;;;;;;;;5056571;28;20021;-60
2020/12/15 12:35:33;;;;;;;18.67;1.50;;;;;;;;;;5061684;28;20099;-58
2020/12/15 12:37:59;;;;;;;8.05;1.73;;;;;;;;;;5064170;28;20074;-59
2020/12/15 12:40:25;;;;;;;11.68;1.55;;;;;;;;;;5053830;28;20032;-59
2020/12/15 12:42:51;;;;;;;9.95;1.42;;;;;;;;;;5067963;28;20029;-65
2020/12/15 12:45:18;;;;;;;10.48;1.20;;;;;;;;;;5069382;28;20028;-61
2020/12/15 12:47:44;;;;;;;11.35;1.90;;;;;;;;;;5062586;28;20154;-63
2020/12/15 12:50:10;;;;;;;13.65;1.60;;;;;;;;;;5062323;28;20040;-60
2020/12/15 12:52:36;;;;;;;5.78;1.40;;;;;;;;;;5053952;28;20046;-62
2020/12/15 12:55:04;;;;;;;18.73;1.60;;;;;;;;;;5067364;28;20030;-61
2020/12/15 12:57:31;;;;;;;8.23;1.40;;;;;;;;;;5055325;28;20863;-69
2020/12/15 12:59:57;;;;;;;13.40;1.55;;;;;;;;;;5064068;28;20035;-59
2020/12/15 13:02:23;;;;;;;9.20;1.13;;;;;;;;;;5064044;28;20109;-61
2020/12/15 13:04:51;;;;;;;13.40;1.52;;;;;;;;;;5069150;28;20037;-60
2020/12/15 13:07:17;;;;;;;8.55;1.05;;;;;;;;;;5066566;28;20025;-60
2020/12/15 13:09:44;;;;;;;9.88;1.50;;;;;;;;;;5067183;28;20012;-60
2020/12/15 13:12:10;;;;;;;11.45;1.65;;;;;;;;;;5057692;28;20037;-60
2020/12/15 13:14:36;;;;;;;9.68;1.42;;;;;;;;;;5061834;28;20090;-60
2020/12/15 13:17:02;;;;;;;8.38;1.48;;;;;;;;;;5066417;28;20073;-59
2020/12/15 13:19:29;;;;;;;12.38;1.27;;;;;;;;;;5066953;28;20020;-60
2020/12/15 13:21:55;;;;;;;11.48;1.58;;;;;;;;;;5052257;28;20044;-58
2020/12/15 13:24:21;;;;;;;9.48;1.75;;;;;;;;;;5066583;28;20024;-60
2020/12/15 13:26:47;;;;;;;10.05;1.40;;;;;;;;;;5056976;28;20087;-61
2020/12/15 13:29:13;;;;;;;9.23;1.58;;;;;;;;;;5058318;28;20499;-60
2020/12/15 13:31:39;;;;;;;10.60;1.13;;;;;;;;;;5066331;28;20059;-57
2020/12/15 13:34:06;;;;;;;4.95;0.80;;;;;;;;;;5054900;28;20857;-60
2020/12/15 13:36:35;;;;;;;9.77;1.38;;;;;;;;;;5056839;28;20425;-59
2020/12/15 13:39:01;;;;;;;6.75;1.25;;;;;;;;;;5056083;28;20033;-58
2020/12/15 13:41:27;;;;;;;5.95;0.95;;;;;;;;;;5055526;28;20170;-60
2020/12/15 13:43:55;;;;;;;11.48;1.60;;;;;;;;;;5055470;28;20033;-59
2020/12/15 13:46:22;;;;;;;8.27;1.27;;;;;;;;;;5065839;28;20480;-61
2020/12/15 13:48:48;;;;;;;8.45;1.45;;;;;;;;;;5067460;28;20029;-59
2020/12/15 13:51:14;;;;;;;7.68;1.52;;;;;;;;;;5055305;28;20055;-60
2020/12/15 13:53:40;;;;;;;10.38;1.55;;;;;;;;;;5057035;28;20029;-60
2020/12/15 13:56:06;;;;;;;6.65;2.05;;;;;;;;;;5060325;28;20453;-60
2020/12/15 13:58:32;;;;;;;8.55;1.58;;;;;;;;;;5065879;28;20048;-59
2020/12/15 14:00:59;;;;;;;11.50;1.35;;;;;;;;;;5051593;28;20103;-59
2020/12/15 14:03:25;;;;;;;10.48;1.48;;;;;;;;;;5065930;28;20082;-61
2020/12/15 14:05:51;;;;;;;8.48;1.15;;;;;;;;;;5055810;28;20036;-59
2020/12/15 14:08:17;;;;;;;8.38;1.45;;;;;;;;;;5058477;28;20392;-61
2020/12/15 14:10:43;;;;;;;11.40;1.13;;;;;;;;;;5065195;28;20055;-61
2020/12/15 14:13:09;;;;;;;11.85;1.20;;;;;;;;;;5065057;28;20242;-60
2020/12/15 14:15:36;;;;;;;10.52;1.50;;;;;;;;;;5057606;28;20029;-57
2020/12/15 14:18:02;;;;;;;7.65;1.42;;;;;;;;;;5068531;28;20452;-61
2020/12/15 14:20:28;;;;;;;15.88;2.05;;;;;;;;;;5067254;28;20024;-61
2020/12/15 14:22:54;;;;;;;7.53;1.30;;;;;;;;;;5063203;28;20130;-61
2020/12/15 14:25:20;;;;;;;11.32;1.00;;;;;;;;;;5057482;28;20528;-61
2020/12/15 14:27:46;;;;;;;13.52;1.80;;;;;;;;;;5055998;28;20060;-61
2020/12/15 14:30:13;;;;;;;6.32;1.20;;;;;;;;;;5069924;28;20552;-61
2020/12/15 14:32:39;;;;;;;9.60;1.63;;;;;;;;;;5067390;28;20142;-57
2020/12/15 14:35:05;;;;;;;12.20;1.83;;;;;;;;;;5065846;28;20028;-59
2020/12/15 14:37:31;;;;;;;11.63;1.85;;;;;;;;;;5058081;28;20036;-60
2020/12/15 14:39:57;;;;;;;7.30;1.48;;;;;;;;;;5055190;28;20028;-60
2020/12/15 14:42:23;;;;;;;12.32;1.27;;;;;;;;;;5069531;28;20029;-60
2020/12/15 14:44:49;;;;;;;12.07;1.50;;;;;;;;;;5060732;28;20045;-59
2020/12/15 14:47:17;;;;;;;17.65;1.70;;;;;;;;;;5064071;28;20100;-61
2020/12/15 14:49:44;;;;;;;10.30;1.63;;;;;;;;;;5067554;28;20021;-61
2020/12/15 14:52:10;;;;;;;6.55;1.38;;;;;;;;;;5058085;28;20029;-60
2020/12/15 14:54:36;;;;;;;9.70;1.20;;;;;;;;;;5070100;28;20139;-60
2020/12/15 14:57:02;;;;;;;9.73;1.25;;;;;;;;;;5058641;28;20409;-61
2020/12/15 14:59:28;;;;;;;14.63;1.63;;;;;;;;;;5062249;28;20039;-61
2020/12/15 15:01:56;;;;;;;10.73;1.42;;;;;;;;;;5066750;28;20727;-61
2020/12/15 15:04:22;;;;;;;14.20;1.80;;;;;;;;;;5067929;28;20485;-66
2020/12/15 15:06:48;;;;;;;6.70;1.20;;;;;;;;;;5069977;28;20040;-60
2020/12/15 15:09:15;;;;;;;14.95;1.65;;;;;;;;;;5057695;28;20486;-63
2020/12/15 15:11:41;;;;;;;10.40;1.23;;;;;;;;;;5057425;28;20358;-69
2020/12/15 15:14:07;;;;;;;10.18;1.33;;;;;;;;;;5059511;28;20522;-60
2020/12/15 15:16:33;;;;;;;16.85;1.58;;;;;;;;;;5069541;28;20032;-60
2020/12/15 15:18:59;;;;;;;15.35;2.03;;;;;;;;;;5061462;28;20378;-62
2020/12/15 15:21:25;;;;;;;7.95;1.58;;;;;;;;;;5068343;28;20072;-59
2020/12/15 15:23:53;;;;;;;11.38;1.60;;;;;;;;;;5060270;28;20120;-59
2020/12/15 15:26:21;;;;;;;10.93;1.70;;;;;;;;;;5062573;28;20032;-59
2020/12/15 15:28:47;;;;;;;11.05;2.15;;;;;;;;;;5067536;28;20103;-59
2020/12/15 15:31:14;;;;;;;8.43;1.45;;;;;;;;;;5055103;28;20024;-60
2020/12/15 15:33:42;;;;;;;6.53;0.90;;;;;;;;;;5069505;28;20020;-59
2020/12/15 15:36:08;;;;;;;9.82;1.33;;;;;;;;;;5069846;28;20035;-59
2020/12/15 15:38:35;;;;;;;8.13;1.20;;;;;;;;;;5065970;28;20020;-59
2020/12/15 15:41:01;;;;;;;10.55;1.20;;;;;;;;;;5068700;28;20028;-60
2020/12/15 15:43:27;;;;;;;11.48;2.75;;;;;;;;;;5070465;28;20535;-59
2020/12/15 15:45:54;;;;;;;10.65;1.42;;;;;;;;;;5066307;28;20098;-60
2020/12/15 15:48:20;;;;;;;7.93;1.00;;;;;;;;;;5069690;28;20047;-59
2020/12/15 15:50:46;;;;;;;8.52;1.15;;;;;;;;;;5067688;28;20386;-59
2020/12/15 15:53:12;;;;;;;12.52;1.30;;;;;;;;;;5069990;28;20401;-59
2020/12/15 15:55:39;;;;;;;7.60;1.00;;;;;;;;;;5067328;28;20134;-59
2020/12/15 15:58:06;;;;;;;4.65;1.02;;;;;;;;;;5068626;28;20421;-60
2020/12/15 16:00:33;;;;;;;10.75;2.67;;;;;;;;;;5068441;28;20048;-60
2020/12/15 16:02:59;;;;;;;4.95;0.95;;;;;;;;;;5065722;28;20059;-59
2020/12/15 16:05:25;;;;;;;9.43;1.35;;;;;;;;;;5068554;28;20021;-59
2020/12/15 16:07:51;;;;;;;6.40;1.40;;;;;;;;;;5067282;28;20017;-59
2020/12/15 16:10:17;;;;;;;7.93;1.25;;;;;;;;;;5068033;28;20032;-60
2020/12/15 16:12:43;;;;;;;5.20;1.30;;;;;;;;;;5068763;28;20043;-59
2020/12/15 16:15:10;;;;;;;8.18;1.25;;;;;;;;;;5068072;28;20118;-59
2020/12/15 16:17:36;;;;;;;7.90;1.15;;;;;;;;;;5067911;28;20017;-59
2020/12/15 16:20:02;;;;;;;16.60;1.92;;;;;;;;;;5067787;28;20508;-59
2020/12/15 16:22:28;;;;;;;14.43;1.80;;;;;;;;;;5067586;28;20040;-59
2020/12/15 16:24:54;;;;;;;5.13;1.20;;;;;;;;;;5069294;28;20074;-56
2020/12/15 16:27:20;;;;;;;7.03;1.40;;;;;;;;;;5070612;28;20036;-56
2020/12/15 16:29:46;;;;;;;12.02;1.63;;;;;;;;;;5069067;28;20035;-61
2020/12/15 16:32:12;;;;;;;11.40;1.40;;;;;;;;;;5068514;28;20437;-59
2020/12/15 16:34:38;;;;;;;11.77;2.17;;;;;;;;;;5067694;28;20413;-59
2020/12/15 16:37:05;;;;;;;8.88;1.73;;;;;;;;;;5069092;28;20029;-59
2020/12/15 16:39:31;;;;;;;6.97;1.50;;;;;;;;;;5070253;28;20542;-59
2020/12/15 16:42:01;;;;;;;6.60;2.20;;;;;;;;;;5068608;28;20557;-59
2020/12/15 16:44:27;;;;;;;14.45;2.10;;;;;;;;;;5067906;28;20037;-58
2020/12/15 16:46:54;;;;;;;13.93;2.22;;;;;;;;;;5066187;28;20040;-59
2020/12/15 16:49:20;;;;;;;12.25;2.15;;;;;;;;;;5066792;28;20024;-59
2020/12/15 16:51:46;;;;;;;8.07;1.95;;;;;;;;;;5068820;28;20017;-59
2020/12/15 16:54:13;;;;;;;15.02;2.63;;;;;;;;;;5069412;28;20020;-59
2020/12/15 16:56:39;;;;;;;10.45;2.45;;;;;;;;;;5068078;28;20033;-59
2020/12/15 16:59:05;;;;;;;11.52;2.58;;;;;;;;;;5065610;28;20409;-59
2020/12/15 17:01:32;;;;;;;13.88;2.55;;;;;;;;;;5066143;28;20047;-59
2020/12/15 17:03:58;;;;;;;20.13;3.20;;;;;;;;;;5067855;28;20033;-59
2020/12/15 17:06:24;;;;;;;15.45;3.38;;;;;;;;;;5069652;28;20032;-59
2020/12/15 17:08:50;;;;;;;9.00;2.45;;;;;;;;;;5055411;28;20029;-59
2020/12/15 17:11:17;;;;;;;12.38;3.83;;;;;;;;;;5054519;28;20116;-59
2020/12/15 17:13:44;;;;;;;17.48;4.07;;;;;;;;;;5057700;28;20162;-59
2020/12/15 17:16:10;;;;;;;24.73;4.25;;;;;;;;;;5063053;28;20032;-59
2020/12/15 17:18:37;;;;;;;22.33;5.72;;;;;;;;;;5052600;28;20087;-60
2020/12/15 17:21:03;;;;;;;11.65;4.50;;;;;;;;;;5051360;28;20064;-59
2020/12/15 17:23:29;;;;;;;13.52;4.85;;;;;;;;;;5051120;28;20055;-59
2020/12/15 17:25:55;;;;;;;22.10;6.50;;;;;;;;;;5050360;28;20512;-58
2020/12/15 17:28:21;;;;;;;26.13;5.55;;;;;;;;;;5058286;28;20028;-59
2020/12/15 17:30:48;;;;;;;16.17;5.95;;;;;;;;;;5052502;28;20107;-59
2020/12/15 17:33:15;;;;;;;17.95;5.72;;;;;;;;;;5058636;28;20012;-59
2020/12/15 17:35:41;;;;;;;18.33;5.72;;;;;;;;;;5051888;28;20036;-59
2020/12/15 17:38:07;;;;;;;16.67;5.72;;;;;;;;;;5054532;28;20017;-59
2020/12/15 17:40:34;;;;;;;14.30;4.47;;;;;;;;;;5055280;28;20048;-59
2020/12/15 17:43:00;;;;;;;15.98;4.75;;;;;;;;;;5051897;28;20029;-59
2020/12/15 17:45:28;;;;;;;22.02;4.68;;;;;;;;;;5056337;28;20025;-59
2020/12/15 17:47:54;;;;;;;15.90;4.93;;;;;;;;;;5061658;28;20112;-59
2020/12/15 17:50:20;;;;;;;14.05;4.05;;;;;;;;;;5055716;28;20029;-59
2020/12/15 17:52:46;;;;;;;17.52;5.07;;;;;;;;;;5054465;28;20017;-59
2020/12/15 17:55:12;;;;;;;17.95;5.18;;;;;;;;;;5061974;28;20033;-59
2020/12/15 17:57:38;;;;;;;20.25;4.38;;;;;;;;;;5063339;28;20036;-59
2020/12/15 18:00:07;;;;;;;11.25;3.85;;;;;;;;;;5066210;28;20036;-59
2020/12/15 18:02:34;;;;;;;16.10;4.80;;;;;;;;;;5058299;28;20021;-59
2020/12/15 18:05:00;;;;;;;13.77;4.53;;;;;;;;;;5059832;28;20055;-60
2020/12/15 18:07:27;;;;;;;17.50;5.10;;;;;;;;;;5058892;28;20021;-59
2020/12/15 18:09:53;;;;;;;13.63;6.40;;;;;;;;;;5061860;28;20041;-59
2020/12/15 18:12:19;;;;;;;21.58;5.90;;;;;;;;;;5059499;28;20445;-59
2020/12/15 18:14:46;;;;;;;25.40;7.55;;;;;;;;;;5063149;28;20027;-59
2020/12/15 18:17:12;;;;;;;21.75;7.85;;;;;;;;;;5061390;28;20390;-59
2020/12/15 18:19:38;;;;;;;18.73;7.57;;;;;;;;;;5063251;28;20017;-59
2020/12/15 18:22:04;;;;;;;26.80;6.60;;;;;;;;;;5066556;28;20041;-59
2020/12/15 18:24:31;;;;;;;21.75;6.78;;;;;;;;;;5055555;28;20033;-59
2020/12/15 18:26:57;;;;;;;21.98;6.85;;;;;;;;;;5063605;28;20107;-59
2020/12/15 18:29:24;;;;;;;25.05;9.18;;;;;;;;;;5059653;28;20017;-59
2020/12/15 18:31:55;;;;;;;28.15;8.35;;;;;;;;;;5054362;28;20090;-59
2020/12/15 18:34:22;;;;;;;20.55;6.68;;;;;;;;;;5066748;28;20431;-59
2020/12/15 18:36:49;;;;;;;21.85;6.22;;;;;;;;;;5052035;28;20033;-59
2020/12/15 18:39:19;;;;;;;15.60;5.60;;;;;;;;;;5054551;28;20502;-59
2020/12/15 18:41:45;;;;;;;22.92;6.07;;;;;;;;;;5061573;28;20033;-59
2020/12/15 18:44:11;;;;;;;22.83;6.35;;;;;;;;;;5066218;28;20493;-59
2020/12/15 18:46:37;;;;;;;31.75;5.97;;;;;;;;;;5064743;28;20108;-59
2020/12/15 18:49:03;;;;;;;21.63;5.75;;;;;;;;;;5066341;28;20031;-59
2020/12/15 18:51:30;;;;;;;23.83;6.70;;;;;;;;;;5065838;28;20071;-59
2020/12/15 18:53:56;;;;;;;27.33;7.13;;;;;;;;;;5067600;28;20493;-59
2020/12/15 18:56:22;;;;;;;28.42;8.07;;;;;;;;;;5066314;28;20032;-60
2020/12/15 18:58:48;;;;;;;22.60;7.82;;;;;;;;;;5063203;28;20029;-60
2020/12/15 19:01:14;;;;;;;15.73;6.47;;;;;;;;;;5068289;28;20044;-60
2020/12/15 19:03:40;;;;;;;17.60;4.72;;;;;;;;;;5062228;28;20384;-59
2020/12/15 19:06:06;;;;;;;16.95;6.07;;;;;;;;;;5067767;28;20504;-60
2020/12/15 19:08:33;;;;;;;19.17;5.43;;;;;;;;;;5065267;28;20121;-60
2020/12/15 19:10:59;;;;;;;14.00;3.40;;;;;;;;;;5068541;28;20032;-60
2020/12/15 19:13:25;;;;;;;20.67;3.78;;;;;;;;;;5066379;28;20037;-59
2020/12/15 19:15:52;;;;;;;22.48;3.83;;;;;;;;;;5057911;28;20021;-60
2020/12/15 19:18:18;;;;;;;18.85;3.72;;;;;;;;;;5068742;28;20067;-60
2020/12/15 19:20:44;;;;;;;15.05;3.83;;;;;;;;;;5065553;28;20036;-59
2020/12/15 19:23:10;;;;;;;19.55;5.07;;;;;;;;;;5067880;28;20078;-60
2020/12/15 19:25:38;;;;;;;27.23;4.70;;;;;;;;;;5070983;28;20050;-60
2020/12/15 19:28:04;;;;;;;24.27;3.50;;;;;;;;;;5069927;28;20027;-60
2020/12/15 19:30:30;;;;;;;30.63;3.95;;;;;;;;;;5071799;28;20027;-60
2020/12/15 19:32:56;;;;;;;25.80;4.28;;;;;;;;;;5069577;28;20674;-60
2020/12/15 19:35:22;;;;;;;20.05;3.90;;;;;;;;;;5066350;28;20027;-59
2020/12/15 19:37:49;;;;;;;21.85;4.47;;;;;;;;;;5070491;28;20135;-60
2020/12/15 19:40:15;;;;;;;15.13;3.40;;;;;;;;;;5070112;28;20020;-60
2020/12/15 19:42:41;;;;;;;26.65;4.07;;;;;;;;;;5069793;28;20032;-60
2020/12/15 19:45:07;;;;;;;25.75;3.63;;;;;;;;;;5070207;28;20028;-59
2020/12/15 19:47:33;;;;;;;17.73;3.08;;;;;;;;;;5069846;28;20405;-59
2020/12/15 19:49:59;;;;;;;26.30;3.72;;;;;;;;;;5066324;28;20473;-60
2020/12/15 19:52:26;;;;;;;20.63;4.22;;;;;;;;;;5070432;28;20530;-61
2020/12/15 19:54:52;;;;;;;15.90;3.30;;;;;;;;;;5057543;28;20497;-60
2020/12/15 19:57:18;;;;;;;18.73;3.80;;;;;;;;;;5070512;28;20436;-60
2020/12/15 19:59:44;;;;;;;23.38;4.20;;;;;;;;;;5068280;28;20043;-60
2020/12/15 20:02:11;;;;;;;22.88;3.45;;;;;;;;;;5062558;28;20538;-60
2020/12/15 20:04:38;;;;;;;16.65;3.65;;;;;;;;;;5068177;28;20060;-60
2020/12/15 20:07:04;;;;;;;22.52;4.47;;;;;;;;;;5052639;28;20024;-60
2020/12/15 20:09:30;;;;;;;24.25;4.25;;;;;;;;;;5067821;28;20108;-60
2020/12/15 20:11:57;;;;;;;19.20;4.15;;;;;;;;;;5057136;28;20107;-60
2020/12/15 20:14:23;;;;;;;15.55;2.88;;;;;;;;;;5056878;28;20466;-60
2020/12/15 20:16:49;;;;;;;24.48;3.90;;;;;;;;;;5057986;28;20112;-59
2020/12/15 20:19:15;;;;;;;18.25;3.90;;;;;;;;;;5069413;28;20021;-60
2020/12/15 20:21:47;;;;;;;23.85;3.85;;;;;;;;;;5054299;28;20234;-65
2020/12/15 20:24:14;;;;;;;15.80;4.50;;;;;;;;;;5071413;28;20025;-64
2020/12/15 20:26:40;;;;;;;20.42;4.70;;;;;;;;;;5064335;28;20074;-64
2020/12/15 20:29:07;;;;;;;21.98;4.10;;;;;;;;;;5061419;28;20029;-65
2020/12/15 20:31:38;;;;;;;25.50;4.45;;;;;;;;;;5065817;28;20025;-64